Time;durP1;ratioP1;P1;durP2;ratioP2;P2;SDS_P1;SDS_P2;PMS_P1;PMS_P2;Temp;Humidity;BMP_temperature;BMP_pressure;BME280_temperature;BME280_humidity;BME280_pressure;Samples;Min_cycle;Max_cycle;Signal;HPM_P1;HPM_P2
2022/03/06 00:00:11;;;;;;;43.50;18.60;;;2.30;62.60;;;;;;5074255;28;20079;-87
2022/03/06 00:02:41;;;;;;;44.58;18.92;;;2.30;62.80;;;;;;5074046;28;20013;-87
2022/03/06 00:05:07;;;;;;;46.03;19.20;;;2.20;63.00;;;;;;5074312;28;20501;-88
2022/03/06 00:07:33;;;;;;;48.27;19.60;;;2.30;63.10;;;;;;5073908;28;20032;-88
2022/03/06 00:09:59;;;;;;;48.53;19.75;;;2.20;63.20;;;;;;5073784;28;20029;-87
2022/03/06 00:12:24;;;;;;;47.10;19.90;;;2.30;63.30;;;;;;5074419;28;20042;-88
2022/03/06 00:14:50;;;;;;;45.35;18.75;;;2.30;63.40;;;;;;5091424;28;20029;-88
2022/03/06 00:17:15;;;;;;;44.33;18.95;;;2.20;63.40;;;;;;5073966;28;20131;-88
2022/03/06 00:19:41;;;;;;;46.55;19.88;;;2.30;63.40;;;;;;5073959;28;20036;-88
2022/03/06 00:22:06;;;;;;;48.58;19.90;;;2.30;63.50;;;;;;5074580;28;20047;-87
2022/03/06 00:24:32;;;;;;;46.38;18.85;;;2.30;63.50;;;;;;5074605;28;20020;-88
2022/03/06 00:26:57;;;;;;;50.88;18.08;;;2.30;63.60;;;;;;5074635;28;20021;-88
2022/03/06 00:29:23;;;;;;;46.10;19.50;;;2.20;63.60;;;;;;5074358;28;20063;-88
2022/03/06 00:31:49;;;;;;;47.00;18.58;;;2.30;63.60;;;;;;5074723;28;20031;-87
2022/03/06 00:34:14;;;;;;;42.25;17.77;;;2.30;63.70;;;;;;5073686;28;20449;-88
2022/03/06 00:36:40;;;;;;;;;;;2.30;63.70;;;;;;5074706;28;20493;-87
2022/03/06 00:39:05;;;;;;;41.10;16.97;;;2.30;63.70;;;;;;5074127;28;19971;-87
2022/03/06 00:41:31;;;;;;;41.10;18.00;;;2.30;63.40;;;;;;5075349;28;20049;-88
2022/03/06 00:43:57;;;;;;;43.10;17.30;;;2.30;63.50;;;;;;5073897;28;20028;-87
2022/03/06 00:46:23;;;;;;;40.92;17.38;;;2.20;63.60;;;;;;5091525;28;20042;-88
2022/03/06 00:48:48;;;;;;;43.90;18.60;;;2.20;63.70;;;;;;5074707;28;20033;-88
2022/03/06 00:51:15;;;;;;;44.38;17.77;;;2.30;63.80;;;;;;5074527;28;20569;-87
2022/03/06 00:53:41;;;;;;;;;;;2.20;63.90;;;;;;5075586;28;20390;-88
2022/03/06 00:56:07;;;;;;;31.55;13.02;;;2.30;63.90;;;;;;5074939;28;19908;-88
2022/03/06 00:58:32;;;;;;;;;;;2.30;63.50;;;;;;5075625;28;20038;-88
2022/03/06 01:00:58;;;;;;;40.07;16.53;;;2.30;63.60;;;;;;5077812;28;19927;-87
2022/03/06 01:03:23;;;;;;;;;;;2.30;63.40;;;;;;5078756;28;20024;-87
2022/03/06 01:05:49;;;;;;;40.20;16.03;;;2.30;63.60;;;;;;5078393;28;19957;-87
2022/03/06 01:08:16;;;;;;;45.17;17.03;;;2.20;63.40;;;;;;5077869;28;20497;-87
2022/03/06 01:10:43;;;;;;;36.73;16.67;;;2.10;63.60;;;;;;5078038;28;20024;-88
2022/03/06 01:13:10;;;;;;;43.63;17.20;;;2.10;63.80;;;;;;5076988;28;20024;-87
2022/03/06 01:15:36;;;;;;;49.87;20.57;;;2.10;63.90;;;;;;5094897;28;20050;-87
2022/03/06 01:18:01;;;;;;;;;;;2.10;64.10;;;;;;5078295;28;20053;-87
2022/03/06 01:20:27;;;;;;;46.00;16.87;;;2.10;64.10;;;;;;5078704;28;19930;-88
2022/03/06 01:22:53;;;;;;;44.20;18.38;;;2.20;63.80;;;;;;5076749;28;20108;-88
2022/03/06 01:25:20;;;;;;;44.40;19.03;;;2.10;63.90;;;;;;5077323;28;20020;-87
2022/03/06 01:27:46;;;;;;;42.03;17.73;;;2.10;64.10;;;;;;5077850;28;20025;-88
2022/03/06 01:30:17;;;;;;;43.77;16.73;;;2.10;64.20;;;;;;5077575;28;20064;-89
2022/03/06 01:32:43;;;;;;;44.00;17.17;;;2.10;64.30;;;;;;5077651;28;20016;-87
2022/03/06 01:35:09;;;;;;;42.90;17.43;;;2.10;64.40;;;;;;5077829;28;20074;-87
2022/03/06 01:37:35;;;;;;;47.10;16.03;;;2.10;64.40;;;;;;5077300;28;20044;-87
2022/03/06 01:40:02;;;;;;;47.40;18.73;;;2.10;64.40;;;;;;5076992;28;20385;-87
2022/03/06 01:42:27;;;;;;;40.10;17.53;;;2.10;64.40;;;;;;5076920;28;20029;-88
2022/03/06 01:44:53;;;;;;;45.45;18.70;;;2.10;64.50;;;;;;5077578;28;20534;-87
2022/03/06 01:47:32;;;;;;;;;;;2.10;64.50;;;;;;5076642;28;20538;-89
2022/03/06 01:49:58;;;;;;;48.53;16.80;;;2.10;64.50;;;;;;5077684;28;19911;-88
2022/03/06 01:52:23;;;;;;;41.05;17.25;;;2.20;64.20;;;;;;5076987;28;20408;-87
2022/03/06 01:54:49;;;;;;;44.42;17.50;;;2.10;64.30;;;;;;5077636;28;20031;-87
2022/03/06 01:57:14;;;;;;;44.17;17.30;;;2.10;64.40;;;;;;5076598;28;20016;-87
2022/03/06 01:59:40;;;;;;;48.67;19.33;;;2.10;64.50;;;;;;5076897;28;20046;-86
2022/03/06 02:02:06;;;;;;;41.65;16.27;;;2.10;64.50;;;;;;5076628;28;20025;-87
2022/03/06 02:04:31;;;;;;;;;;;2.10;64.60;;;;;;5078074;28;20070;-87
2022/03/06 02:06:57;;;;;;;40.37;17.27;;;2.10;64.70;;;;;;5076964;28;19923;-87
2022/03/06 02:09:22;;;;;;;37.75;16.10;;;2.10;64.40;;;;;;5075873;28;20047;-87
2022/03/06 02:12:21;;;;;;;47.45;18.27;;;2.10;64.50;;;;;;5075333;28;20031;-88
2022/03/06 02:14:34;;;;;;;40.17;18.40;;;2.10;64.60;;;;;;5077152;28;20501;-87
2022/03/06 02:17:01;;;;;;;41.47;18.60;;;2.10;64.60;;;;;;5092552;28;20101;-88
2022/03/06 02:19:26;;;;;;;43.63;17.70;;;2.10;64.70;;;;;;5076378;28;20115;-87
2022/03/06 02:21:52;;;;;;;41.17;18.38;;;2.10;64.80;;;;;;5075632;28;20063;-88
2022/03/06 02:24:17;;;;;;;47.70;18.88;;;2.10;64.80;;;;;;5075834;28;20028;-87
2022/03/06 02:26:43;;;;;;;43.35;17.33;;;2.10;64.90;;;;;;5075105;28;20021;-88
2022/03/06 02:29:08;;;;;;;45.92;18.70;;;2.10;64.90;;;;;;5075895;28;20017;-88
2022/03/06 02:31:36;;;;;;;42.08;19.20;;;2.10;64.90;;;;;;5077402;28;20031;-88
2022/03/06 02:34:02;;;;;;;46.20;18.93;;;2.10;64.90;;;;;;5075807;28;20020;-88
2022/03/06 02:36:28;;;;;;;47.20;17.87;;;2.10;64.90;;;;;;5075813;28;20025;-89
2022/03/06 02:38:53;;;;;;;41.70;17.83;;;2.10;65.00;;;;;;5075486;28;20021;-89
2022/03/06 02:41:19;;;;;;;45.72;19.42;;;2.10;65.00;;;;;;5075461;28;20382;-88
2022/03/06 02:43:44;;;;;;;49.28;19.05;;;2.10;65.00;;;;;;5075502;28;20025;-88
2022/03/06 02:46:10;;;;;;;;;;;2.10;65.00;;;;;;5076178;28;20016;-89
2022/03/06 02:48:36;;;;;;;47.23;18.93;;;2.10;65.00;;;;;;5075292;28;19995;-88
2022/03/06 02:51:01;;;;;;;;;;;2.20;64.70;;;;;;5076307;28;20040;-87
2022/03/06 02:53:26;;;;;;;39.33;17.00;;;2.10;64.70;;;;;;5075701;28;20000;-89
2022/03/06 02:55:52;;;;;;;37.33;16.83;;;2.20;64.50;;;;;;5076150;28;20029;-88
2022/03/06 02:58:18;;;;;;;41.22;17.40;;;2.10;64.60;;;;;;5075271;28;20115;-87
2022/03/06 03:00:44;;;;;;;42.22;17.38;;;2.10;64.70;;;;;;5074843;28;20017;-88
2022/03/06 03:03:09;;;;;;;;;;;2.10;64.80;;;;;;5074802;28;20534;-88
2022/03/06 03:05:35;;;;;;;39.00;17.33;;;2.10;64.90;;;;;;5074799;28;19994;-89
2022/03/06 03:08:00;;;;;;;41.30;16.88;;;2.10;64.60;;;;;;5074608;28;20149;-88
2022/03/06 03:10:27;;;;;;;40.67;17.40;;;2.10;64.70;;;;;;5074408;28;20545;-87
2022/03/06 03:12:54;;;;;;;38.03;17.00;;;2.10;64.90;;;;;;5074705;28;20365;-87
2022/03/06 03:15:20;;;;;;;42.50;16.77;;;2.00;64.90;;;;;;5075927;28;20024;-89
2022/03/06 03:17:46;;;;;;;39.42;17.85;;;2.10;65.00;;;;;;5074487;28;20048;-89
2022/03/06 03:20:12;;;;;;;;;;;2.00;65.10;;;;;;5075229;28;20024;-88
2022/03/06 03:22:38;;;;;;;38.40;15.90;;;2.00;65.10;;;;;;5074565;28;19904;-88
2022/03/06 03:25:05;;;;;;;39.78;16.80;;;2.00;64.90;;;;;;5074961;28;20582;-88
2022/03/06 03:27:30;;;;;;;43.43;18.10;;;2.00;64.90;;;;;;5074533;28;20035;-87
2022/03/06 03:29:59;;;;;;;36.10;15.75;;;1.90;65.00;;;;;;5076012;28;20021;-87
2022/03/06 03:32:25;;;;;;;42.00;17.77;;;1.90;65.10;;;;;;5074147;28;20119;-87
2022/03/06 03:34:50;;;;;;;40.60;16.90;;;1.90;65.10;;;;;;5074807;28;20505;-88
2022/03/06 03:37:16;;;;;;;38.35;16.73;;;2.00;65.20;;;;;;5074140;28;20020;-88
2022/03/06 03:39:42;;;;;;;35.20;15.63;;;1.90;65.20;;;;;;5074569;28;20111;-87
2022/03/06 03:42:08;;;;;;;38.30;15.63;;;1.90;65.20;;;;;;5074577;28;20048;-88
2022/03/06 03:44:33;;;;;;;38.25;16.52;;;1.90;65.20;;;;;;5073540;28;20055;-88
2022/03/06 03:46:59;;;;;;;34.25;15.18;;;1.90;65.20;;;;;;5073796;28;20377;-87
2022/03/06 03:49:25;;;;;;;34.30;14.82;;;1.90;65.20;;;;;;5091519;28;20027;-87
2022/03/06 03:51:50;;;;;;;;;;;1.90;65.20;;;;;;5074329;28;20024;-88
2022/03/06 03:54:16;;;;;;;37.07;13.17;;;1.90;65.20;;;;;;5074167;28;20001;-88
2022/03/06 03:56:42;;;;;;;34.58;14.63;;;1.90;64.90;;;;;;5074197;28;20416;-88
2022/03/06 03:59:08;;;;;;;34.43;15.17;;;1.90;64.90;;;;;;5074100;28;20001;-87
2022/03/06 04:01:33;;;;;;;34.30;14.90;;;1.90;65.00;;;;;;5074244;28;20023;-88
2022/03/06 04:03:59;;;;;;;35.03;15.73;;;1.90;65.00;;;;;;5073433;28;20024;-87
2022/03/06 04:06:25;;;;;;;37.45;14.27;;;1.90;65.00;;;;;;5074391;28;20441;-88
2022/03/06 04:08:51;;;;;;;31.23;13.65;;;1.80;64.90;;;;;;5074163;28;20028;-88
2022/03/06 04:11:17;;;;;;;20.75;8.40;;;1.90;64.80;;;;;;5074345;28;20033;-88
2022/03/06 04:13:43;;;;;;;20.20;8.90;;;1.90;64.50;;;;;;5074017;28;20012;-88
2022/03/06 04:16:09;;;;;;;24.50;9.30;;;1.90;63.90;;;;;;5073759;28;20031;-88
2022/03/06 04:18:34;;;;;;;20.85;9.55;;;1.90;63.70;;;;;;5073844;28;20497;-89
2022/03/06 04:21:00;;;;;;;24.48;10.02;;;1.90;63.50;;;;;;5091294;28;20492;-89
2022/03/06 04:23:25;;;;;;;23.92;10.50;;;1.90;63.30;;;;;;5073831;28;20013;-88
2022/03/06 04:25:51;;;;;;;22.85;10.80;;;1.90;63.20;;;;;;5075365;28;20466;-87
2022/03/06 04:28:17;;;;;;;25.90;10.70;;;1.90;63.00;;;;;;5073378;28;20025;-85
2022/03/06 04:30:42;;;;;;;24.42;10.63;;;1.90;62.90;;;;;;5072310;28;20021;-86
2022/03/06 04:33:08;;;;;;;21.52;9.98;;;2.00;62.80;;;;;;5073003;28;20020;-86
2022/03/06 04:35:34;;;;;;;22.27;9.27;;;1.90;62.60;;;;;;5076155;28;20442;-84
2022/03/06 04:37:59;;;;;;;;;;;2.00;62.40;;;;;;5077347;28;20032;-86
2022/03/06 04:40:25;;;;;;;21.30;9.13;;;2.00;62.40;;;;;;5076878;28;19987;-86
2022/03/06 04:42:50;;;;;;;;;;;2.10;62.00;;;;;;5077834;28;20091;-87
2022/03/06 04:45:16;;;;;;;20.23;8.23;;;2.10;61.90;;;;;;5077561;28;19912;-87
2022/03/06 04:47:42;;;;;;;18.50;7.65;;;2.00;61.50;;;;;;5076932;28;20370;-86
2022/03/06 04:50:08;;;;;;;21.35;8.20;;;2.00;61.40;;;;;;5077054;28;20037;-87
2022/03/06 04:52:33;;;;;;;;;;;2.00;61.30;;;;;;5077342;28;20035;-86
2022/03/06 04:54:59;;;;;;;20.57;7.70;;;2.00;61.20;;;;;;5076730;28;19908;-86
2022/03/06 04:57:24;;;;;;;15.68;7.57;;;2.00;60.90;;;;;;5077307;28;20024;-87
2022/03/06 04:59:50;;;;;;;20.67;8.50;;;2.00;61.00;;;;;;5076454;28;20013;-87
2022/03/06 05:02:15;;;;;;;19.80;8.40;;;1.90;60.90;;;;;;5076505;28;20009;-87
2022/03/06 05:04:41;;;;;;;23.33;9.23;;;1.90;60.80;;;;;;5076342;28;20538;-86
2022/03/06 05:07:06;;;;;;;22.00;9.05;;;1.90;60.80;;;;;;5075789;28;20037;-87
2022/03/06 05:09:32;;;;;;;18.52;7.50;;;1.90;60.80;;;;;;5076278;28;20029;-86
2022/03/06 05:11:57;;;;;;;;;;;1.90;60.70;;;;;;5076364;28;20362;-87
2022/03/06 05:14:23;;;;;;;18.10;6.13;;;1.90;60.50;;;;;;5076660;28;19912;-87
2022/03/06 05:16:48;;;;;;;18.05;6.45;;;2.00;60.10;;;;;;5076056;28;20056;-87
2022/03/06 05:19:14;;;;;;;16.58;8.32;;;1.90;59.90;;;;;;5076752;28;20016;-87
2022/03/06 05:21:40;;;;;;;19.10;7.93;;;2.00;59.90;;;;;;5076013;28;20165;-88
2022/03/06 05:24:06;;;;;;;15.90;6.65;;;1.90;59.80;;;;;;5075969;28;20158;-87
2022/03/06 05:26:31;;;;;;;19.05;7.38;;;2.00;59.70;;;;;;5076279;28;20020;-86
2022/03/06 05:28:57;;;;;;;21.63;9.18;;;1.90;59.60;;;;;;5075957;28;20032;-87
2022/03/06 05:31:24;;;;;;;19.05;7.75;;;2.00;59.50;;;;;;5075821;28;20020;-85
2022/03/06 05:33:49;;;;;;;19.70;8.53;;;2.00;59.40;;;;;;5076027;28;20025;-86
2022/03/06 05:36:15;;;;;;;17.63;7.53;;;2.00;59.20;;;;;;5076028;28;20028;-86
2022/03/06 05:38:40;;;;;;;22.95;8.98;;;2.10;59.10;;;;;;5075531;28;20032;-86
2022/03/06 05:41:06;;;;;;;21.88;9.30;;;2.10;58.90;;;;;;5075023;28;20023;-86
2022/03/06 05:43:32;;;;;;;20.33;8.98;;;2.00;58.80;;;;;;5075798;28;20047;-86
2022/03/06 05:45:58;;;;;;;21.27;8.38;;;2.00;58.80;;;;;;5075087;28;20020;-86
2022/03/06 05:48:24;;;;;;;17.37;8.17;;;2.10;58.70;;;;;;5074445;28;20028;-86
2022/03/06 05:50:49;;;;;;;19.13;8.00;;;2.10;58.70;;;;;;5075665;28;20465;-86
2022/03/06 05:53:15;;;;;;;;;;;2.10;58.70;;;;;;5075742;28;20040;-86
2022/03/06 05:55:41;;;;;;;23.47;7.43;;;2.10;58.70;;;;;;5092380;28;19912;-86
2022/03/06 05:58:07;;;;;;;17.17;7.53;;;2.10;58.40;;;;;;5075169;28;20033;-87
2022/03/06 06:00:32;;;;;;;19.80;8.43;;;2.10;58.40;;;;;;5076215;28;20503;-86
2022/03/06 06:02:58;;;;;;;21.20;8.57;;;2.10;58.30;;;;;;5075650;28;20108;-86
2022/03/06 06:05:24;;;;;;;18.17;8.70;;;2.10;58.30;;;;;;5075767;28;20078;-86
2022/03/06 06:07:50;;;;;;;19.02;8.07;;;2.10;58.30;;;;;;5075255;28;20477;-85
2022/03/06 06:10:16;;;;;;;20.10;7.90;;;2.10;58.30;;;;;;5074828;28;20444;-84
2022/03/06 06:12:41;;;;;;;17.60;8.65;;;2.10;58.30;;;;;;5074597;28;20127;-86
2022/03/06 06:15:08;;;;;;;;;;;2.10;58.30;;;;;;5075389;28;20111;-87
2022/03/06 06:17:33;;;;;;;26.83;11.23;;;2.10;58.30;;;;;;5108756;28;20372;-86
2022/03/06 06:20:00;;;;;;;40.40;16.08;;;2.20;58.00;;;;;;5075466;28;20112;-86
2022/03/06 06:22:28;;;;;;;27.63;12.07;;;2.10;58.00;;;;;;5074607;28;20081;-87
2022/03/06 06:24:54;;;;;;;25.67;12.07;;;2.10;58.10;;;;;;5074809;28;20055;-86
2022/03/06 06:27:19;;;;;;;;;;;2.20;58.10;;;;;;5075513;28;20028;-86
2022/03/06 06:29:45;;;;;;;20.00;8.67;;;2.20;58.20;;;;;;5074710;28;19908;-86
2022/03/06 06:32:11;;;;;;;18.23;8.80;;;2.30;57.90;;;;;;5074701;28;20034;-86
2022/03/06 06:34:36;;;;;;;;;;;2.30;58.00;;;;;;5076190;28;20028;-85
2022/03/06 06:37:02;;;;;;;22.03;8.73;;;2.30;58.00;;;;;;5075313;28;19912;-88
2022/03/06 06:39:28;;;;;;;;;;;2.30;57.80;;;;;;5075077;28;20021;-85
2022/03/06 06:41:53;;;;;;;18.60;8.40;;;2.30;57.90;;;;;;5074114;28;19913;-82
2022/03/06 06:44:19;;;;;;;20.10;9.00;;;2.30;57.70;;;;;;5073081;28;20444;-83
2022/03/06 06:46:45;;;;;;;;;;;2.30;57.80;;;;;;5075168;28;20020;-83
2022/03/06 06:49:10;;;;;;;23.53;9.80;;;2.30;57.90;;;;;;5073944;28;19977;-83
2022/03/06 06:51:38;;;;;;;;;;;2.40;57.70;;;;;;5075567;28;20021;-83
2022/03/06 06:54:04;;;;;;;19.55;7.72;;;2.30;57.90;;;;;;5074806;28;20380;-82
2022/03/06 06:56:30;;;;;;;12.40;5.57;;;2.40;57.70;;;;;;5073608;28;20037;-82
2022/03/06 06:58:56;;;;;;;12.35;5.85;;;2.40;57.60;;;;;;5072550;28;20032;-83
2022/03/06 07:01:21;;;;;;;15.25;6.60;;;2.40;57.30;;;;;;5073554;28;20120;-83
2022/03/06 07:03:47;;;;;;;12.52;5.88;;;2.40;57.10;;;;;;5073065;28;20031;-83
2022/03/06 07:06:12;;;;;;;;;;;2.40;57.00;;;;;;5079227;28;20062;-83
2022/03/06 07:08:38;;;;;;;14.57;5.20;;;2.50;56.80;;;;;;5074650;28;19915;-83
2022/03/06 07:11:03;;;;;;;16.20;6.43;;;2.50;56.50;;;;;;5072618;28;20047;-83
2022/03/06 07:13:29;;;;;;;9.45;4.93;;;2.60;56.40;;;;;;5072738;28;20028;-82
2022/03/06 07:15:54;;;;;;;12.20;5.60;;;2.60;56.10;;;;;;5072215;28;20028;-82
2022/03/06 07:18:20;;;;;;;9.30;5.15;;;2.60;56.00;;;;;;5073644;28;20052;-83
2022/03/06 07:20:46;;;;;;;13.07;5.47;;;2.60;55.90;;;;;;5072817;28;20077;-83
2022/03/06 07:23:11;;;;;;;;;;;2.60;55.80;;;;;;5072949;28;20525;-81
2022/03/06 07:25:37;;;;;;;9.77;4.73;;;2.70;55.70;;;;;;5074301;28;20285;-82
2022/03/06 07:28:03;;;;;;;9.82;4.45;;;2.70;55.30;;;;;;5072438;28;20028;-83
2022/03/06 07:30:28;;;;;;;;;;;2.70;54.90;;;;;;5073152;28;20040;-83
2022/03/06 07:32:54;;;;;;;11.03;4.57;;;2.70;54.90;;;;;;5072665;28;19912;-82
2022/03/06 07:35:20;;;;;;;;;;;2.70;54.60;;;;;;5073218;28;20033;-83
2022/03/06 07:37:46;;;;;;;6.63;3.27;;;2.70;54.70;;;;;;5072844;28;19986;-83
2022/03/06 07:40:15;;;;;;;9.50;4.05;;;2.70;54.20;;;;;;5072498;28;20025;-83
2022/03/06 07:42:40;;;;;;;13.23;4.70;;;2.70;54.30;;;;;;5076561;28;20108;-83
2022/03/06 07:45:06;;;;;;;7.57;4.35;;;2.70;54.10;;;;;;5072625;28;20049;-83
2022/03/06 07:47:35;;;;;;;11.07;4.63;;;2.70;54.10;;;;;;5072676;28;20074;-83
2022/03/06 07:50:36;;;;;;;9.57;4.10;;;2.80;54.00;;;;;;5072367;28;20031;-82
2022/03/06 07:53:02;;;;;;;9.93;4.33;;;2.80;53.50;;;;;;5073187;28;20090;-82
2022/03/06 07:55:27;;;;;;;10.48;4.50;;;2.80;53.10;;;;;;5073412;28;20036;-82
2022/03/06 07:57:53;;;;;;;10.90;5.30;;;2.80;53.30;;;;;;5071945;28;20020;-83
2022/03/06 08:00:18;;;;;;;9.50;3.55;;;2.80;53.20;;;;;;5072589;28;20029;-83
2022/03/06 08:02:44;;;;;;;8.63;3.22;;;2.90;52.70;;;;;;5073949;28;20025;-83
2022/03/06 08:05:10;;;;;;;9.32;3.20;;;2.90;52.60;;;;;;5072110;28;20028;-82
2022/03/06 08:07:36;;;;;;;8.07;3.35;;;2.90;52.40;;;;;;5071935;28;20024;-83
2022/03/06 08:10:06;;;;;;;6.67;2.93;;;2.90;52.00;;;;;;5073171;28;20533;-83
2022/03/06 08:12:37;;;;;;;7.83;3.27;;;2.90;51.80;;;;;;5072018;28;20020;-82
2022/03/06 08:15:08;;;;;;;12.77;3.93;;;2.90;51.20;;;;;;5064216;28;20031;-83
2022/03/06 08:17:48;;;;;;;;;;;;;;;;;;;;;
2022/03/06 08:23:51;;;;;;;8.50;3.40;;;3.00;51.00;;;;;;5070110;28;20036;-82
2022/03/06 08:26:19;;;;;;;7.73;4.10;;;3.10;50.20;;;;;;5065509;28;20032;-83
2022/03/06 08:28:44;;;;;;;8.60;3.63;;;3.10;50.20;;;;;;5071615;28;20377;-83
2022/03/06 08:31:16;;;;;;;8.45;3.55;;;3.10;50.30;;;;;;5071743;28;20027;-82
2022/03/06 08:33:41;;;;;;;6.27;3.10;;;3.10;49.90;;;;;;5071535;28;20035;-85
2022/03/06 08:36:07;;;;;;;7.63;3.15;;;3.20;49.80;;;;;;5071256;28;20389;-84
2022/03/06 08:38:33;;;;;;;;;;;3.20;49.70;;;;;;5072128;28;20017;-84
2022/03/06 08:40:58;;;;;;;6.37;2.73;;;3.30;49.80;;;;;;5071865;28;19931;-85
2022/03/06 08:43:24;;;;;;;8.25;3.38;;;3.30;49.50;;;;;;5071591;28;20025;-84
2022/03/06 08:45:50;;;;;;;4.35;2.40;;;3.30;49.30;;;;;;5072067;28;20127;-85
2022/03/06 08:48:15;;;;;;;;;;;3.30;49.30;;;;;;5072242;28;20063;-84
2022/03/06 08:50:41;;;;;;;5.23;2.47;;;3.40;49.30;;;;;;5071662;28;19916;-84
2022/03/06 08:53:06;;;;;;;5.97;3.17;;;3.40;49.00;;;;;;5070854;28;20021;-85
2022/03/06 08:55:32;;;;;;;;;;;3.40;49.10;;;;;;5078425;28;20025;-83
2022/03/06 08:57:58;;;;;;;6.23;3.20;;;3.40;49.20;;;;;;5071303;28;20002;-83
2022/03/06 09:00:24;;;;;;;9.47;3.93;;;3.40;49.00;;;;;;5071312;28;20016;-84
2022/03/06 09:02:50;;;;;;;5.88;2.80;;;3.50;49.00;;;;;;5071489;28;20073;-85
2022/03/06 09:05:15;;;;;;;5.15;2.78;;;3.50;48.90;;;;;;5071611;28;20401;-85
2022/03/06 09:07:41;;;;;;;;;;;3.50;48.90;;;;;;5090164;28;20495;-84
2022/03/06 09:10:07;;;;;;;10.23;3.77;;;3.60;48.80;;;;;;5072898;28;19912;-81
2022/03/06 09:12:33;;;;;;;;;;;3.70;48.70;;;;;;5075053;28;20032;-83
2022/03/06 09:15:01;;;;;;;5.87;2.90;;;3.70;48.80;;;;;;5080155;28;19899;-83
2022/03/06 09:17:27;;;;;;;5.67;3.27;;;3.80;48.60;;;;;;5073771;28;20405;-82
2022/03/06 09:19:52;;;;;;;7.63;3.95;;;3.70;48.20;;;;;;5071379;28;20025;-82
2022/03/06 09:22:19;;;;;;;;;;;3.80;48.40;;;;;;5076693;28;20020;-82
2022/03/06 09:24:45;;;;;;;9.55;4.30;;;3.80;48.40;;;;;;5076529;28;19912;-82
2022/03/06 09:27:10;;;;;;;11.00;4.35;;;3.80;48.30;;;;;;5074320;28;20082;-82
2022/03/06 09:29:36;;;;;;;8.85;4.28;;;3.90;48.30;;;;;;5075705;28;20438;-80
2022/03/06 09:32:02;;;;;;;9.73;4.30;;;3.90;48.10;;;;;;5076180;28;20073;-82
2022/03/06 09:34:27;;;;;;;10.48;3.60;;;3.90;47.90;;;;;;5074783;28;20386;-81
2022/03/06 09:36:53;;;;;;;10.68;3.58;;;4.00;47.90;;;;;;5074438;28;20057;-81
2022/03/06 09:39:19;;;;;;;6.72;2.65;;;4.00;47.40;;;;;;5074596;28;20500;-82
2022/03/06 09:41:49;;;;;;;5.00;3.47;;;4.00;47.00;;;;;;5074561;28;20158;-82
2022/03/06 09:44:15;;;;;;;6.43;2.87;;;4.00;47.10;;;;;;5075338;28;20442;-85
2022/03/06 09:46:41;;;;;;;9.20;4.03;;;3.90;47.20;;;;;;5077845;28;20048;-84
2022/03/06 09:49:08;;;;;;;5.93;3.00;;;4.00;47.30;;;;;;5076482;28;20032;-81
2022/03/06 09:51:39;;;;;;;9.60;3.43;;;4.00;47.20;;;;;;5074005;28;20423;-82
2022/03/06 09:54:06;;;;;;;10.40;4.43;;;4.10;47.20;;;;;;5074185;28;20389;-81
2022/03/06 09:56:32;;;;;;;7.17;3.70;;;4.10;47.20;;;;;;5074689;28;20044;-81
2022/03/06 10:02:04;;;;;;;7.07;3.40;;;4.10;46.70;;;;;;5057719;28;20055;-81
2022/03/06 10:04:34;;;;;;;5.03;2.70;;;4.10;46.60;;;;;;5073770;28;20028;-81
2022/03/06 10:07:10;;;;;;;8.20;4.00;;;4.10;46.70;;;;;;5073686;28;20103;-84
2022/03/06 10:09:48;;;;;;;7.73;3.27;;;4.10;46.70;;;;;;5074155;28;20119;-80
2022/03/06 10:12:28;;;;;;;10.97;4.83;;;4.20;46.70;;;;;;5074354;28;20025;-81
2022/03/06 10:14:57;;;;;;;6.30;3.37;;;4.20;46.60;;;;;;5075001;28;20115;-81
2022/03/06 10:17:24;;;;;;;7.40;3.77;;;4.20;46.40;;;;;;5073558;28;20047;-81
2022/03/06 10:20:01;;;;;;;8.77;4.87;;;4.10;46.50;;;;;;5074727;28;20082;-80
2022/03/06 10:22:32;;;;;;;8.23;4.60;;;4.10;46.50;;;;;;5073419;28;20021;-80
2022/03/06 10:25:03;;;;;;;8.90;4.20;;;4.10;46.40;;;;;;5074937;28;20436;-80
2022/03/06 10:27:45;;;;;;;9.07;3.80;;;4.20;46.40;;;;;;5073920;28;20028;-80
2022/03/06 10:30:33;;;;;;;10.00;4.30;;;4.10;46.30;;;;;;5073284;28;20397;-80
2022/03/06 10:33:01;;;;;;;8.53;3.67;;;4.20;46.00;;;;;;5073019;28;20051;-81
2022/03/06 10:35:35;;;;;;;8.43;3.60;;;4.20;46.00;;;;;;5073055;28;20090;-81
2022/03/06 10:38:01;;;;;;;9.17;4.50;;;4.20;45.90;;;;;;5073648;28;20052;-82
2022/03/06 10:40:37;;;;;;;;;;;4.30;45.90;;;;;;5073827;28;20388;-80
2022/03/06 10:43:25;;;;;;;11.63;5.07;;;4.30;45.80;;;;;;5073657;28;19909;-81
2022/03/06 10:46:04;;;;;;;28.30;9.77;;;4.30;45.50;;;;;;5063553;28;20090;-80
2022/03/06 10:48:29;;;;;;;10.53;4.57;;;4.30;45.70;;;;;;5072752;28;20028;-81
2022/03/06 10:51:00;;;;;;;8.23;4.22;;;4.30;45.80;;;;;;5073430;28;20032;-81
2022/03/06 10:53:27;;;;;;;7.27;3.63;;;4.30;45.80;;;;;;5074307;28;20063;-81
2022/03/06 10:55:53;;;;;;;7.23;3.53;;;4.30;45.70;;;;;;5073205;28;20038;-80
2022/03/06 10:58:22;;;;;;;8.30;3.90;;;4.30;45.70;;;;;;5072959;28;20024;-80
2022/03/06 11:00:48;;;;;;;8.50;4.33;;;4.30;45.60;;;;;;5073212;28;21205;-81
2022/03/06 11:03:14;;;;;;;6.60;4.10;;;4.30;45.30;;;;;;5075027;28;20025;-81
2022/03/06 11:05:44;;;;;;;;;;;4.40;45.40;;;;;;5073212;28;20056;-81
2022/03/06 11:08:18;;;;;;;7.03;3.53;;;4.40;45.50;;;;;;5073518;28;19909;-87
2022/03/06 11:10:44;;;;;;;9.77;4.70;;;4.40;45.20;;;;;;5075001;28;20020;-86
2022/03/06 11:13:12;;;;;;;7.50;3.53;;;4.40;45.40;;;;;;5073795;28;20024;-83
2022/03/06 11:15:42;;;;;;;7.13;3.70;;;4.50;45.40;;;;;;5074319;28;20017;-85
2022/03/06 11:18:08;;;;;;;8.20;4.17;;;4.60;45.40;;;;;;5074296;28;20093;-84
2022/03/06 11:20:36;;;;;;;8.37;3.70;;;4.60;45.20;;;;;;5073182;28;20029;-85
2022/03/06 11:23:29;;;;;;;8.53;4.37;;;4.80;45.10;;;;;;5072780;28;20067;-83
2022/03/06 11:26:09;;;;;;;8.47;4.50;;;5.00;44.80;;;;;;5072644;28;20036;-85
2022/03/06 11:29:06;;;;;;;8.30;3.83;;;5.20;44.60;;;;;;5072275;28;20062;-85
2022/03/06 11:31:45;;;;;;;8.90;4.15;;;5.30;44.40;;;;;;5087503;28;20036;-84
2022/03/06 11:34:12;;;;;;;8.03;4.50;;;5.50;44.10;;;;;;5077483;28;20044;-87
2022/03/06 11:36:46;;;;;;;7.37;4.00;;;5.60;43.90;;;;;;5073040;28;20441;-86
2022/03/06 11:39:35;;;;;;;7.27;3.63;;;5.60;43.70;;;;;;5071711;28;20042;-85
2022/03/06 11:42:03;;;;;;;6.33;3.30;;;5.70;43.80;;;;;;5067101;28;20063;-85
2022/03/06 11:44:36;;;;;;;6.27;3.60;;;5.80;43.50;;;;;;5071962;28;20085;-85
2022/03/06 11:47:32;;;;;;;6.23;3.80;;;5.70;43.40;;;;;;5073400;28;20072;-85
2022/03/06 11:49:59;;;;;;;9.43;4.37;;;5.80;43.30;;;;;;5089671;28;20046;-85
2022/03/06 11:52:28;;;;;;;8.63;4.20;;;5.90;43.20;;;;;;5072590;28;20036;-85
2022/03/06 11:54:55;;;;;;;7.93;4.33;;;5.80;43.20;;;;;;5073749;28;20028;-87
2022/03/06 11:57:47;;;;;;;9.33;3.90;;;5.90;43.40;;;;;;5073087;28;20111;-83
2022/03/06 12:00:17;;;;;;;8.20;3.83;;;5.90;43.10;;;;;;5075444;28;20115;-83
2022/03/06 12:02:53;;;;;;;7.30;3.90;;;5.90;43.00;;;;;;5076036;28;20359;-83
2022/03/06 12:05:19;;;;;;;;;;;5.90;42.90;;;;;;5072160;28;20047;-83
2022/03/06 12:07:46;;;;;;;7.77;3.70;;;5.90;43.20;;;;;;5071625;28;19947;-85
2022/03/06 12:10:30;;;;;;;8.40;4.17;;;5.90;43.00;;;;;;5072397;28;20028;-83
2022/03/06 12:12:59;;;;;;;6.50;4.07;;;6.00;43.00;;;;;;5070927;28;20041;-85
2022/03/06 12:15:28;;;;;;;10.00;4.87;;;6.00;42.90;;;;;;5071071;28;20074;-83
2022/03/06 12:18:01;;;;;;;8.93;4.43;;;5.90;42.90;;;;;;5071511;28;20040;-83
2022/03/06 12:20:28;;;;;;;7.43;4.07;;;5.90;42.70;;;;;;5071534;28;20028;-83
2022/03/06 12:22:57;;;;;;;8.03;4.60;;;5.80;42.70;;;;;;5071855;28;20025;-83
2022/03/06 12:25:29;;;;;;;8.20;4.73;;;5.90;42.70;;;;;;5071422;28;20020;-83
2022/03/06 12:28:25;;;;;;;11.63;5.77;;;5.90;42.60;;;;;;5073916;28;20481;-83
2022/03/06 12:30:52;;;;;;;8.57;4.73;;;5.80;42.30;;;;;;5071304;28;20081;-84
2022/03/06 12:33:26;;;;;;;10.27;4.07;;;5.70;42.40;;;;;;5071388;28;20107;-83
2022/03/06 12:36:14;;;;;;;7.53;4.30;;;5.70;42.40;;;;;;5066247;28;20485;-84
2022/03/06 12:38:40;;;;;;;9.93;5.37;;;5.50;42.40;;;;;;5071287;28;20024;-84
2022/03/06 12:41:06;;;;;;;7.97;4.57;;;5.40;42.60;;;;;;5071501;28;20029;-84
2022/03/06 12:43:33;;;;;;;11.00;4.80;;;5.40;42.70;;;;;;5071216;28;20032;-84
2022/03/06 12:45:59;;;;;;;8.20;4.60;;;5.40;42.80;;;;;;5067370;28;20023;-84
2022/03/06 12:48:25;;;;;;;9.53;4.97;;;5.30;42.70;;;;;;5071487;28;20125;-83
2022/03/06 12:50:57;;;;;;;9.20;4.40;;;5.30;42.70;;;;;;5071546;28;20028;-89
2022/03/06 12:53:23;;;;;;;12.77;5.63;;;5.20;42.80;;;;;;5073231;28;20025;-88
2022/03/06 12:55:56;;;;;;;5.82;3.88;;;5.20;43.00;;;;;;5076562;28;20043;-88
2022/03/06 12:58:22;;;;;;;9.33;4.40;;;5.20;43.00;;;;;;5075845;28;20028;-83
2022/03/06 13:00:47;;;;;;;10.55;4.70;;;5.20;42.80;;;;;;5075296;28;20520;-84
2022/03/06 13:03:14;;;;;;;;;;;5.10;42.80;;;;;;5075744;28;20021;-82
2022/03/06 13:05:40;;;;;;;7.37;4.50;;;5.10;43.00;;;;;;5077017;28;19908;-79